createdAt,value
2024-02-18T00:01:07.388Z,3.50
2024-02-18T00:06:29.557Z,4.00
2024-02-18T00:11:32.956Z,1.50
2024-02-18T00:16:36.387Z,0.80
2024-02-18T00:21:39.713Z,0.60
2024-02-18T00:26:53.943Z,1.50
2024-02-18T00:32:01.477Z,1.10
2024-02-18T00:37:05.263Z,0.80
2024-02-18T00:42:10.048Z,0.50
2024-02-18T00:47:13.572Z,0.60
2024-02-18T00:52:17.093Z,1.40
2024-02-18T00:57:20.762Z,2.70
2024-02-18T01:02:24.223Z,2.10
2024-02-18T01:07:27.438Z,3.20
2024-02-18T01:12:30.799Z,3.70
2024-02-18T01:17:34.216Z,3.40
2024-02-18T01:22:37.792Z,2.80
2024-02-18T01:27:41.124Z,2.20
2024-02-18T01:32:44.376Z,2.50
2024-02-18T01:37:47.625Z,7.60
2024-02-18T01:42:50.851Z,3.10
2024-02-18T01:47:54.515Z,3.60
2024-02-18T01:52:58.088Z,2.80
2024-02-18T01:58:03.269Z,3.20
2024-02-18T02:03:09.138Z,4.90
2024-02-18T02:08:12.428Z,3.40
2024-02-18T02:13:15.640Z,4.60
2024-02-18T02:18:18.861Z,4.00
2024-02-18T02:23:22.161Z,4.20
2024-02-18T02:28:30.313Z,7.60
2024-02-18T02:33:33.438Z,4.40
2024-02-18T02:38:37.838Z,4.70
2024-02-18T02:43:41.050Z,4.10
2024-02-18T02:48:44.229Z,4.60
2024-02-18T02:53:47.516Z,5.90
2024-02-18T02:58:50.822Z,5.20
2024-02-18T03:03:54.240Z,5.80
2024-02-18T03:08:57.422Z,5.50
2024-02-18T03:14:00.420Z,7.30
2024-02-18T03:19:03.686Z,6.80
2024-02-18T03:24:07.061Z,5.90
2024-02-18T03:29:12.009Z,7.00
2024-02-18T03:34:15.189Z,5.00
2024-02-18T03:39:21.295Z,6.10
2024-02-18T03:44:26.147Z,5.40
2024-02-18T03:49:30.860Z,4.80
2024-02-18T03:54:35.016Z,5.30
2024-02-18T03:59:38.130Z,5.20
2024-02-18T04:04:41.368Z,5.70
2024-02-18T04:09:44.741Z,5.80
2024-02-18T04:14:47.972Z,5.90
2024-02-18T04:19:51.203Z,6.40
2024-02-18T04:24:54.416Z,7.00
2024-02-18T04:29:57.809Z,5.90
2024-02-18T04:35:01.051Z,7.30
2024-02-18T04:40:05.520Z,9.60
2024-02-18T04:45:09.434Z,7.00
2024-02-18T04:50:12.496Z,6.00
2024-02-18T04:55:15.769Z,6.30
2024-02-18T05:00:19.228Z,6.10
2024-02-18T05:05:22.335Z,7.70
2024-02-18T05:10:26.060Z,6.10
2024-02-18T05:15:29.226Z,6.10
2024-02-18T05:20:32.384Z,8.00
2024-02-18T05:25:35.600Z,5.40
2024-02-18T05:30:38.841Z,3.20
2024-02-18T05:35:42.256Z,6.50
2024-02-18T05:40:45.430Z,6.60
2024-02-18T05:45:48.491Z,7.20
2024-02-18T05:50:51.968Z,6.30
2024-02-18T05:55:55.166Z,10.40
2024-02-18T06:00:58.487Z,8.70
2024-02-18T06:06:01.949Z,7.20
2024-02-18T06:11:08.720Z,8.90
2024-02-18T06:16:12.118Z,13.90
2024-02-18T06:21:22.538Z,12.70
2024-02-18T06:26:26.220Z,15.10
2024-02-18T06:31:29.448Z,11.00
2024-02-18T06:36:37.552Z,10.30
2024-02-18T06:41:41.072Z,8.00
2024-02-18T06:46:44.278Z,10.60
2024-02-18T06:51:47.629Z,11.40
2024-02-18T06:56:50.804Z,11.50
2024-02-18T07:01:54.044Z,14.50
2024-02-18T07:06:57.308Z,15.20
2024-02-18T07:12:00.650Z,8.30
2024-02-18T07:17:04.127Z,6.20
2024-02-18T07:22:08.128Z,6.10
2024-02-18T07:27:11.435Z,10.90
2024-02-18T07:32:15.557Z,11.10
2024-02-18T07:37:19.042Z,7.30
2024-02-18T07:42:22.671Z,5.70
2024-02-18T07:47:26.108Z,7.70
2024-02-18T07:52:29.553Z,5.70
2024-02-18T07:57:32.962Z,5.20
2024-02-18T08:02:36.566Z,6.20
2024-02-18T08:07:40.235Z,5.30
2024-02-18T08:12:43.768Z,5.70
2024-02-18T08:17:48.747Z,7.80
2024-02-18T08:22:52.318Z,7.10
2024-02-18T08:27:55.861Z,7.00
2024-02-18T08:32:59.858Z,8.80
2024-02-18T08:38:03.343Z,9.40
2024-02-18T08:43:06.708Z,8.40
2024-02-18T08:48:10.206Z,10.90
2024-02-18T08:53:13.572Z,7.40
2024-02-18T08:58:16.843Z,6.80
2024-02-18T09:03:20.387Z,8.70
2024-02-18T09:08:24.078Z,9.30
2024-02-18T09:13:27.261Z,9.40
2024-02-18T09:18:30.624Z,7.40
2024-02-18T09:23:34.104Z,8.70
2024-02-18T09:28:37.284Z,8.10
2024-02-18T09:33:43.670Z,10.20
2024-02-18T09:38:47.090Z,8.90
2024-02-18T09:43:53.275Z,8.20
2024-02-18T09:48:56.874Z,8.60
2024-02-18T09:54:00.731Z,9.80
2024-02-18T09:59:03.880Z,9.70
2024-02-18T10:04:07.330Z,10.50
2024-02-18T10:09:10.961Z,9.40
2024-02-18T10:14:14.375Z,17.60
2024-02-18T10:19:17.934Z,13.10
2024-02-18T10:24:25.575Z,10.90
2024-02-18T10:29:28.826Z,8.30
2024-02-18T10:34:32.025Z,8.70
2024-02-18T10:39:39.670Z,6.50
2024-02-18T10:44:46.446Z,6.70
2024-02-18T10:49:59.376Z,7.60
2024-02-18T10:55:07.905Z,5.90
2024-02-18T11:00:13.902Z,7.70
2024-02-18T11:05:19.979Z,7.40
2024-02-18T11:10:23.988Z,9.70
2024-02-18T11:15:27.271Z,7.70
2024-02-18T11:20:31.489Z,6.60
2024-02-18T11:25:35.361Z,8.70
2024-02-18T11:30:38.708Z,6.90
2024-02-18T11:35:41.805Z,6.30
2024-02-18T11:40:49.212Z,5.00
2024-02-18T11:45:57.005Z,4.40
2024-02-18T11:51:00.372Z,5.70
2024-02-18T11:56:04.421Z,4.00
2024-02-18T12:01:08.136Z,6.60
2024-02-18T12:06:11.644Z,3.70
2024-02-18T12:11:17.631Z,3.00
2024-02-18T12:16:21.511Z,4.40
2024-02-18T12:21:24.853Z,3.00
2024-02-18T12:26:28.062Z,2.30
2024-02-18T12:31:31.578Z,1.70
2024-02-18T12:36:35.150Z,4.00
2024-02-18T12:41:38.515Z,3.60
2024-02-18T12:46:42.958Z,3.90
2024-02-18T12:51:50.378Z,3.40
2024-02-18T12:56:53.892Z,3.20
2024-02-18T13:01:57.942Z,5.50
2024-02-18T13:07:11.460Z,3.80
2024-02-18T13:12:14.775Z,3.10
2024-02-18T13:17:18.326Z,4.50
2024-02-18T13:22:21.605Z,14.70
2024-02-18T13:27:25.024Z,6.10
2024-02-18T13:32:28.405Z,14.50
2024-02-18T13:37:32.175Z,5.20
2024-02-18T13:42:35.573Z,4.30
2024-02-18T13:47:39.167Z,4.30
2024-02-18T13:52:42.335Z,8.60
2024-02-18T13:57:45.550Z,4.80
2024-02-18T14:02:48.578Z,5.00
2024-02-18T14:07:51.848Z,4.00
2024-02-18T14:12:54.992Z,4.00
2024-02-18T14:17:59.676Z,3.70
2024-02-18T14:23:03.294Z,3.80
2024-02-18T14:28:10.610Z,5.20
2024-02-18T14:33:13.998Z,8.90
2024-02-18T14:38:18.102Z,12.50
2024-02-18T14:43:21.353Z,5.60
2024-02-18T14:48:24.757Z,8.10
2024-02-18T14:53:28.634Z,5.70
2024-02-18T14:58:32.159Z,6.20
2024-02-18T15:03:35.833Z,6.70
2024-02-18T15:08:39.080Z,55.70
2024-02-18T15:13:42.394Z,10.90
2024-02-18T15:18:45.411Z,9.20
2024-02-18T15:23:48.454Z,10.00
2024-02-18T15:28:51.565Z,18.20
2024-02-18T15:33:54.987Z,11.30
2024-02-18T15:38:58.479Z,72.20
2024-02-18T15:44:02.012Z,85.50
2024-02-18T15:49:05.426Z,23.90
2024-02-18T15:54:08.698Z,20.60
2024-02-18T15:59:11.959Z,13.40
2024-02-18T16:04:15.290Z,20.30
2024-02-18T16:09:18.999Z,25.10
2024-02-18T16:14:22.187Z,22.90
2024-02-18T16:19:25.362Z,32.50
2024-02-18T16:24:29.574Z,77.70
2024-02-18T16:29:34.074Z,51.00
2024-02-18T16:34:37.328Z,40.70
2024-02-18T16:39:46.156Z,23.80
2024-02-18T16:44:49.573Z,22.20
2024-02-18T16:49:53.113Z,27.50
2024-02-18T16:54:56.720Z,39.10
2024-02-18T17:00:00.204Z,20.40
2024-02-18T17:05:07.271Z,13.00
2024-02-18T17:10:11.372Z,19.30
2024-02-18T17:15:14.731Z,32.80
2024-02-18T17:20:18.184Z,106.40
2024-02-18T17:25:21.967Z,81.80
2024-02-18T17:30:26.333Z,110.70
2024-02-18T17:35:30.652Z,37.50
2024-02-18T17:40:33.960Z,18.60
2024-02-18T17:45:37.201Z,10.60
2024-02-18T17:50:41.460Z,16.40
2024-02-18T17:55:49.119Z,23.70
2024-02-18T18:00:52.343Z,17.10
2024-02-18T18:05:55.667Z,18.10
2024-02-18T18:10:59.786Z,21.30
2024-02-18T18:16:08.522Z,13.90
2024-02-18T18:21:12.466Z,7.50
2024-02-18T18:26:15.767Z,9.80
2024-02-18T18:31:19.070Z,11.80
2024-02-18T18:36:22.915Z,18.30
2024-02-18T18:41:26.217Z,17.30
2024-02-18T18:46:36.588Z,19.10
2024-02-18T18:51:39.861Z,17.60
2024-02-18T18:56:43.438Z,16.00
2024-02-18T19:01:46.743Z,17.00
2024-02-18T19:06:51.396Z,10.50
2024-02-18T19:11:54.695Z,9.80
2024-02-18T19:16:57.886Z,16.80
2024-02-18T19:22:01.275Z,15.70
2024-02-18T19:27:05.109Z,15.40
2024-02-18T19:32:08.571Z,14.10
2024-02-18T19:37:12.306Z,5.90
2024-02-18T19:42:16.144Z,7.50
2024-02-18T19:47:20.113Z,5.60
2024-02-18T19:52:23.484Z,7.80
2024-02-18T19:57:26.880Z,6.80
2024-02-18T20:02:29.994Z,9.80
2024-02-18T20:07:33.285Z,9.10
2024-02-18T20:12:37.589Z,6.00
2024-02-18T20:17:43.361Z,6.40
2024-02-18T20:22:46.524Z,6.10
2024-02-18T20:27:51.030Z,5.90
2024-02-18T20:32:54.205Z,9.20
2024-02-18T20:37:57.489Z,10.40
2024-02-18T20:43:02.895Z,9.30
2024-02-18T20:48:06.661Z,6.70
2024-02-18T20:53:11.746Z,8.60
2024-02-18T20:58:16.156Z,9.40
2024-02-18T21:03:20.975Z,10.00
2024-02-18T21:08:24.843Z,8.50
2024-02-18T21:13:28.678Z,8.10
2024-02-18T21:18:31.994Z,8.70
2024-02-18T21:23:36.331Z,7.40
2024-02-18T21:28:42.587Z,7.80
2024-02-18T21:33:47.858Z,7.00
2024-02-18T21:38:51.881Z,10.00
2024-02-18T21:43:55.144Z,5.90
2024-02-18T21:48:58.359Z,7.20
2024-02-18T21:54:01.484Z,5.90
2024-02-18T21:59:05.158Z,7.30
2024-02-18T22:04:08.414Z,7.20
2024-02-18T22:09:11.672Z,8.60
2024-02-18T22:14:14.783Z,10.00
2024-02-18T22:19:18.369Z,8.10
2024-02-18T22:24:23.978Z,5.60
2024-02-18T22:29:27.281Z,5.90
2024-02-18T22:34:30.576Z,4.90
2024-02-18T22:39:33.851Z,5.00
2024-02-18T22:44:39.319Z,8.80
2024-02-18T22:49:42.713Z,5.50
2024-02-18T22:54:48.606Z,6.60
2024-02-18T22:59:51.793Z,5.00
2024-02-18T23:04:55.395Z,6.30
2024-02-18T23:09:58.622Z,5.60
2024-02-18T23:15:02.032Z,3.80
2024-02-18T23:20:06.528Z,8.20
2024-02-18T23:25:09.756Z,3.60
2024-02-18T23:30:13.477Z,5.90
2024-02-18T23:35:19.937Z,5.90
2024-02-18T23:40:23.237Z,4.40
2024-02-18T23:45:26.554Z,5.00
2024-02-18T23:50:29.729Z,6.40
2024-02-18T23:55:32.954Z,3.50
